createdAt,value
2023-01-20T00:03:22.756Z,-0.28
2023-01-20T00:08:25.511Z,-0.04
2023-01-20T00:13:28.230Z,0.04
2023-01-20T00:18:33.350Z,-0.22
2023-01-20T00:23:36.202Z,-0.16
2023-01-20T00:28:39.032Z,-0.36
2023-01-20T00:33:43.724Z,-0.43
2023-01-20T00:38:46.851Z,-0.64
2023-01-20T00:43:49.959Z,-0.30
2023-01-20T00:48:54.286Z,-0.53
2023-01-20T00:53:57.631Z,-0.51
2023-01-20T00:59:00.392Z,0.04
2023-01-20T01:04:04.541Z,-0.01
2023-01-20T01:09:07.410Z,0.26
2023-01-20T01:14:10.572Z,0.38
2023-01-20T01:19:14.701Z,0.41
2023-01-20T01:24:17.473Z,0.58
2023-01-20T01:29:20.229Z,0.72
2023-01-20T01:34:24.646Z,0.82
2023-01-20T01:39:28.581Z,0.90
2023-01-20T01:44:32.862Z,0.87
2023-01-20T01:49:37.041Z,0.87
2023-01-20T01:54:45.488Z,0.86
2023-01-20T01:59:48.286Z,0.83
2023-01-20T02:04:52.452Z,0.83
2023-01-20T02:09:55.337Z,0.84
2023-01-20T02:15:00.685Z,0.54
2023-01-20T02:20:25.960Z,0.55
2023-01-20T02:25:45.660Z,0.86
2023-01-20T02:31:20.039Z,0.95
2023-01-20T02:36:30.366Z,0.94
2023-01-20T02:41:39.892Z,0.94
2023-01-20T02:46:52.686Z,1.00
2023-01-20T02:52:02.900Z,0.89
2023-01-20T02:57:09.572Z,0.68
2023-01-20T03:02:16.295Z,0.53
2023-01-20T03:07:24.386Z,0.37
2023-01-20T03:12:32.269Z,0.42
2023-01-20T03:17:35.845Z,0.50
2023-01-20T03:22:40.021Z,0.42
2023-01-20T03:27:43.442Z,0.45
2023-01-20T03:32:49.285Z,0.36
2023-01-20T03:37:53.424Z,0.35
2023-01-20T03:43:02.832Z,0.28
2023-01-20T03:48:14.035Z,0.37
2023-01-20T03:53:28.884Z,0.41
2023-01-20T03:58:36.251Z,0.45
2023-01-20T04:03:41.212Z,0.52
2023-01-20T04:08:49.104Z,0.55
2023-01-20T04:13:52.228Z,0.57
2023-01-20T04:18:55.383Z,0.43
2023-01-20T04:24:04.566Z,0.29
2023-01-20T04:29:12.669Z,0.28
2023-01-20T04:34:16.396Z,0.07
2023-01-20T04:39:20.533Z,0.36
2023-01-20T04:44:23.362Z,0.40
2023-01-20T04:49:26.111Z,0.38
2023-01-20T04:54:30.342Z,0.15
2023-01-20T04:59:33.139Z,0.30
2023-01-20T05:04:37.888Z,0.35
2023-01-20T05:09:42.043Z,0.32
2023-01-20T05:14:44.823Z,0.41
2023-01-20T05:19:47.668Z,0.36
2023-01-20T05:24:51.793Z,0.30
2023-01-20T05:29:54.689Z,0.30
2023-01-20T05:34:57.453Z,0.31
2023-01-20T05:40:01.634Z,0.27
2023-01-20T05:45:05.020Z,0.23
2023-01-20T05:50:11.356Z,0.30
2023-01-20T05:55:15.955Z,0.20
2023-01-20T06:00:20.031Z,0.32
2023-01-20T06:05:23.181Z,0.37
2023-01-20T06:10:28.097Z,0.34
2023-01-20T06:15:30.863Z,0.47
2023-01-20T06:20:33.602Z,0.08
2023-01-20T06:25:37.817Z,0.44
2023-01-20T06:30:43.091Z,0.37
2023-01-20T06:35:45.905Z,0.27
2023-01-20T06:40:50.025Z,0.35
2023-01-20T06:45:52.780Z,0.50
2023-01-20T06:50:55.673Z,0.36
2023-01-20T06:56:01.287Z,0.47
2023-01-20T07:01:09.767Z,0.38
2023-01-20T07:06:18.167Z,0.52
2023-01-20T07:11:22.406Z,0.48
2023-01-20T07:16:25.534Z,0.41
2023-01-20T07:21:29.027Z,0.46
2023-01-20T07:26:33.525Z,0.37
2023-01-20T07:31:36.501Z,0.46
2023-01-20T07:36:39.247Z,0.45
2023-01-20T07:41:45.549Z,0.61
2023-01-20T07:46:48.658Z,0.77
2023-01-20T07:51:51.413Z,0.84
2023-01-20T07:56:55.625Z,0.87
2023-01-20T08:01:58.373Z,0.71
2023-01-20T08:07:01.137Z,0.76
2023-01-20T08:12:05.905Z,0.71
2023-01-20T08:17:08.853Z,0.64
2023-01-20T08:22:11.653Z,0.89
2023-01-20T08:27:15.858Z,0.95
2023-01-20T08:32:18.669Z,0.86
2023-01-20T08:37:21.629Z,1.00
2023-01-20T08:42:25.730Z,1.04
2023-01-20T08:47:28.613Z,1.08
2023-01-20T08:52:31.470Z,1.03
2023-01-20T08:57:35.593Z,1.15
2023-01-20T09:02:38.987Z,1.21
2023-01-20T09:07:41.781Z,1.23
2023-01-20T09:12:46.459Z,1.33
2023-01-20T09:17:49.375Z,1.30
2023-01-20T09:22:52.193Z,1.45
2023-01-20T09:27:56.410Z,1.63
2023-01-20T09:33:00.135Z,1.73
2023-01-20T09:38:20.555Z,1.94
2023-01-20T09:43:51.792Z,2.30
2023-01-20T09:49:21.002Z,2.21
2023-01-20T09:54:27.414Z,2.04
2023-01-20T09:59:41.161Z,2.10
2023-01-20T10:04:49.693Z,2.17
2023-01-20T10:09:59.500Z,2.27
2023-01-20T10:15:08.971Z,2.39
2023-01-20T10:20:22.613Z,2.61
2023-01-20T10:25:30.209Z,1.87
2023-01-20T10:30:37.790Z,2.42
2023-01-20T10:35:44.306Z,2.18
2023-01-20T10:40:53.512Z,1.83
2023-01-20T10:46:12.575Z,2.01
2023-01-20T10:51:25.767Z,1.83
2023-01-20T10:56:37.319Z,2.98
2023-01-20T11:01:42.575Z,3.48
2023-01-20T11:06:46.679Z,3.82
2023-01-20T11:11:49.512Z,4.38
2023-01-20T11:17:00.942Z,6.18
2023-01-20T11:22:11.963Z,5.36
2023-01-20T11:27:17.882Z,4.89
2023-01-20T11:32:42.900Z,3.73
2023-01-20T11:37:45.774Z,3.55
2023-01-20T11:42:49.898Z,3.05
2023-01-20T11:48:03.834Z,2.26
2023-01-20T11:53:17.744Z,2.73
2023-01-20T11:58:22.464Z,2.92
2023-01-20T12:03:52.087Z,2.92
2023-01-20T12:09:00.613Z,2.74
2023-01-20T12:14:28.554Z,2.70
2023-01-20T12:19:38.619Z,2.67
2023-01-20T12:25:05.323Z,2.66
2023-01-20T12:30:23.205Z,2.77
2023-01-20T12:35:35.078Z,2.64
2023-01-20T12:40:47.629Z,2.64
2023-01-20T12:45:57.872Z,2.43
2023-01-20T12:51:17.240Z,2.35
2023-01-20T12:56:30.107Z,2.38
2023-01-20T13:01:43.907Z,2.60
2023-01-20T13:07:04.229Z,2.68
2023-01-20T13:12:25.632Z,2.47
2023-01-20T13:17:36.050Z,2.61
2023-01-20T13:22:40.281Z,2.58
2023-01-20T13:27:45.021Z,2.43
2023-01-20T13:32:49.068Z,2.48
2023-01-20T13:37:56.351Z,2.42
2023-01-20T13:42:59.345Z,2.51
2023-01-20T13:48:18.003Z,2.57
2023-01-20T13:53:29.772Z,2.56
2023-01-20T13:58:44.211Z,2.64
2023-01-20T14:04:02.571Z,2.76
2023-01-20T14:09:19.793Z,2.77
2023-01-20T14:14:24.985Z,2.74
2023-01-20T14:19:32.427Z,2.64
2023-01-20T14:24:38.440Z,2.55
2023-01-20T14:29:41.209Z,2.53
2023-01-20T14:34:44.659Z,2.54
2023-01-20T14:39:51.552Z,2.52
2023-01-20T14:44:56.587Z,2.45
2023-01-20T14:49:59.469Z,2.53
2023-01-20T14:55:03.672Z,2.52
2023-01-20T15:00:20.446Z,2.58
2023-01-20T15:05:28.383Z,2.59
2023-01-20T15:10:32.665Z,2.48
2023-01-20T15:21:23.055Z,2.15
2023-01-20T15:26:29.585Z,2.03
2023-01-20T15:31:32.392Z,2.08
2023-01-20T15:36:36.913Z,2.06
2023-01-20T15:41:41.316Z,2.00
2023-01-20T15:46:44.080Z,1.94
2023-01-20T15:51:47.356Z,1.85
2023-01-20T15:56:51.482Z,1.62
2023-01-20T16:01:54.273Z,1.54
2023-01-20T16:06:57.005Z,1.38
2023-01-20T16:12:01.082Z,1.21
2023-01-20T16:17:03.877Z,1.04
2023-01-20T16:22:08.602Z,0.79
2023-01-20T16:27:19.260Z,0.78
2023-01-20T16:32:24.053Z,0.68
2023-01-20T16:37:26.851Z,0.68
2023-01-20T16:42:31.011Z,0.70
2023-01-20T16:47:33.866Z,0.70
2023-01-20T16:52:36.636Z,0.75
2023-01-20T16:57:40.810Z,0.75
2023-01-20T17:02:45.565Z,0.75
2023-01-20T17:07:48.314Z,0.78
2023-01-20T17:12:54.598Z,0.74
2023-01-20T17:17:59.825Z,0.66
2023-01-20T17:23:03.192Z,0.54
2023-01-20T17:28:07.394Z,0.50
2023-01-20T17:33:10.142Z,0.51
2023-01-20T17:38:12.969Z,0.52
2023-01-20T17:43:17.200Z,0.35
2023-01-20T17:48:20.025Z,0.21
2023-01-20T17:53:22.852Z,0.12
2023-01-20T17:58:27.019Z,-0.01
2023-01-20T18:03:29.764Z,-0.06
2023-01-20T18:08:32.620Z,-0.16
2023-01-20T18:13:37.064Z,-0.20
2023-01-20T18:18:40.196Z,-0.20
2023-01-20T18:23:43.778Z,-0.27
2023-01-20T18:28:47.970Z,-0.33
2023-01-20T18:33:52.234Z,-0.41
2023-01-20T18:38:57.078Z,-0.51
2023-01-20T18:44:01.284Z,-0.50
2023-01-20T18:49:05.164Z,-0.54
2023-01-20T18:54:10.367Z,-0.58
2023-01-20T18:59:15.553Z,-0.63
2023-01-20T19:04:18.317Z,-0.75
2023-01-20T19:09:21.166Z,-0.75
2023-01-20T19:14:25.355Z,-0.77
2023-01-20T19:19:28.044Z,-0.70
2023-01-20T19:24:30.821Z,-0.70
2023-01-20T19:29:35.019Z,-0.69
2023-01-20T19:34:39.189Z,-0.70
2023-01-20T19:39:41.979Z,-0.70
2023-01-20T19:44:46.164Z,-0.70
2023-01-20T19:49:48.943Z,-0.75
2023-01-20T19:54:52.283Z,-0.73
2023-01-20T19:59:56.430Z,-0.69
2023-01-20T20:04:59.169Z,-0.68
2023-01-20T20:10:02.031Z,-0.73
2023-01-20T20:15:07.126Z,-0.80
2023-01-20T20:20:11.303Z,-0.90
2023-01-20T20:25:14.154Z,-0.92
2023-01-20T20:30:19.206Z,-0.95
2023-01-20T20:35:22.020Z,-0.93
2023-01-20T20:40:25.221Z,-0.96
2023-01-20T20:45:29.423Z,-1.01
2023-01-20T20:50:32.510Z,-1.08
2023-01-20T20:55:35.371Z,-1.04
2023-01-20T21:00:39.612Z,-1.10
2023-01-20T21:05:46.263Z,-1.14
2023-01-20T21:10:49.106Z,-1.15
2023-01-20T21:16:01.528Z,-1.25
2023-01-20T21:21:06.392Z,-1.28
2023-01-20T21:26:12.721Z,-1.28
2023-01-20T21:31:19.124Z,-1.25
2023-01-20T21:36:23.181Z,-1.27
2023-01-20T21:41:26.082Z,-1.32
2023-01-20T21:46:31.590Z,-1.32
2023-01-20T21:51:51.909Z,-1.31
2023-01-20T21:56:54.680Z,-1.33
2023-01-20T22:01:58.905Z,-1.42
2023-01-20T22:07:01.737Z,-1.42
2023-01-20T22:12:05.033Z,-1.47
2023-01-20T22:17:11.219Z,-1.57
2023-01-20T22:22:15.298Z,-1.58
2023-01-20T22:27:18.152Z,-1.63
2023-01-20T22:32:22.260Z,-1.70
2023-01-20T22:37:25.674Z,-1.81
2023-01-20T22:42:28.542Z,-1.81
2023-01-20T22:47:32.674Z,-1.75
2023-01-20T22:52:35.455Z,-1.70
2023-01-20T22:57:38.230Z,-1.75
2023-01-20T23:02:42.381Z,-1.73
2023-01-20T23:07:45.144Z,-1.68
2023-01-20T23:12:47.909Z,-1.66
2023-01-20T23:17:52.070Z,-1.57
2023-01-20T23:22:54.942Z,-1.68
2023-01-20T23:27:57.762Z,-1.82
2023-01-20T23:33:01.939Z,-2.01
2023-01-20T23:38:04.762Z,-2.01
2023-01-20T23:43:07.525Z,-1.94
2023-01-20T23:48:11.671Z,-1.88
2023-01-20T23:53:14.500Z,-1.93
2023-01-20T23:58:17.243Z,-2.01
